createdAt,value
2022-11-07T00:01:23.784Z,5.73
2022-11-07T00:04:15.088Z,5.84
2022-11-07T00:06:50.548Z,5.86
2022-11-07T00:09:22.540Z,5.81
2022-11-07T00:12:00.506Z,5.83
2022-11-07T00:14:30.741Z,5.84
2022-11-07T00:17:23.164Z,5.88
2022-11-07T00:19:51.226Z,5.88
2022-11-07T00:22:28.680Z,5.85
2022-11-07T00:25:01.573Z,5.82
2022-11-07T00:27:29.050Z,5.74
2022-11-07T00:29:58.120Z,5.76
2022-11-07T00:32:27.345Z,5.75
2022-11-07T00:34:54.974Z,5.77
2022-11-07T00:37:27.932Z,5.80
2022-11-07T00:40:02.092Z,5.94
2022-11-07T00:42:46.376Z,6.06
2022-11-07T00:45:18.018Z,6.02
2022-11-07T00:50:31.765Z,5.95
2022-11-07T00:53:01.179Z,5.89
2022-11-07T00:55:33.111Z,5.83
2022-11-07T00:58:12.694Z,5.90
2022-11-07T01:00:43.895Z,5.90
2022-11-07T01:03:34.988Z,5.90
2022-11-07T01:06:06.073Z,6.01
2022-11-07T01:08:35.872Z,6.01
2022-11-07T01:11:08.288Z,6.11
2022-11-07T01:13:45.895Z,6.13
2022-11-07T01:16:15.915Z,6.19
2022-11-07T01:18:48.186Z,6.16
2022-11-07T01:21:18.234Z,6.19
2022-11-07T01:23:46.843Z,6.15
2022-11-07T01:26:24.507Z,6.16
2022-11-07T01:28:57.201Z,6.12
2022-11-07T01:31:28.962Z,6.19
2022-11-07T01:33:56.613Z,6.13
2022-11-07T01:36:26.811Z,6.17
2022-11-07T01:38:59.194Z,6.28
2022-11-07T01:41:27.955Z,6.31
2022-11-07T01:44:26.589Z,6.29
2022-11-07T01:47:15.119Z,6.29
2022-11-07T01:49:49.107Z,6.32
2022-11-07T01:52:39.234Z,6.39
2022-11-07T01:55:30.730Z,6.45
2022-11-07T01:58:21.972Z,6.46
2022-11-07T02:00:55.095Z,6.49
2022-11-07T02:03:37.932Z,6.57
2022-11-07T02:06:16.203Z,6.51
2022-11-07T02:08:51.785Z,6.57
2022-11-07T02:11:23.392Z,6.65
2022-11-07T02:13:58.250Z,6.61
2022-11-07T02:16:48.612Z,6.70
2022-11-07T02:19:45.076Z,6.69
2022-11-07T02:22:57.917Z,6.78
2022-11-07T02:25:37.249Z,6.73
2022-11-07T02:28:13.039Z,6.67
2022-11-07T02:30:40.336Z,6.70
2022-11-07T02:33:17.172Z,6.70
2022-11-07T02:35:47.437Z,6.78
2022-11-07T02:38:38.714Z,6.83
2022-11-07T02:41:13.653Z,6.85
2022-11-07T02:43:56.029Z,6.72
2022-11-07T02:46:38.734Z,6.75
2022-11-07T02:49:15.688Z,6.74
2022-11-07T02:51:45.910Z,6.76
2022-11-07T02:54:15.795Z,6.77
2022-11-07T02:56:42.437Z,6.86
2022-11-07T02:59:09.008Z,6.93
2022-11-07T03:01:35.739Z,6.91
2022-11-07T03:04:02.446Z,6.95
2022-11-07T03:06:29.104Z,6.96
2022-11-07T03:08:55.729Z,6.93
2022-11-07T03:11:22.326Z,6.97
2022-11-07T03:13:50.724Z,6.95
2022-11-07T03:16:18.807Z,6.92
2022-11-07T03:18:45.405Z,6.96
2022-11-07T03:21:12.054Z,6.93
2022-11-07T03:23:38.627Z,7.02
2022-11-07T03:26:05.738Z,7.02
2022-11-07T03:28:32.907Z,6.95
2022-11-07T03:31:01.009Z,7.00
2022-11-07T03:33:28.917Z,7.02
2022-11-07T03:35:55.506Z,6.95
2022-11-07T03:38:22.670Z,7.02
2022-11-07T03:40:49.236Z,7.01
2022-11-07T03:43:16.082Z,7.12
2022-11-07T03:45:43.004Z,7.04
2022-11-07T03:48:09.631Z,7.06
2022-11-07T03:50:36.343Z,7.13
2022-11-07T03:53:02.966Z,7.20
2022-11-07T03:55:29.562Z,7.23
2022-11-07T03:57:56.167Z,7.17
2022-11-07T04:00:23.028Z,7.22
2022-11-07T04:02:49.665Z,7.18
2022-11-07T04:05:16.418Z,7.15
2022-11-07T04:07:43.167Z,7.16
2022-11-07T04:10:09.890Z,7.29
2022-11-07T04:12:54.795Z,7.26
2022-11-07T04:15:40.331Z,7.27
2022-11-07T04:18:06.930Z,7.21
2022-11-07T04:20:33.509Z,7.22
2022-11-07T04:23:00.096Z,7.20
2022-11-07T04:25:45.182Z,7.23
2022-11-07T04:28:11.781Z,7.23
2022-11-07T04:30:38.359Z,7.17
2022-11-07T04:33:04.988Z,7.23
2022-11-07T04:35:33.282Z,7.21
2022-11-07T04:38:00.974Z,7.28
2022-11-07T04:40:28.871Z,7.31
2022-11-07T04:42:55.762Z,7.35
2022-11-07T04:45:22.730Z,7.33
2022-11-07T04:47:49.425Z,7.30
2022-11-07T04:50:18.530Z,7.27
2022-11-07T04:52:46.709Z,7.31
2022-11-07T04:55:23.391Z,7.28
2022-11-07T04:57:49.996Z,7.31
2022-11-07T05:00:18.336Z,7.31
2022-11-07T05:02:45.433Z,7.36
2022-11-07T05:05:12.534Z,7.37
2022-11-07T05:07:39.743Z,7.39
2022-11-07T05:10:12.207Z,7.32
2022-11-07T05:12:39.083Z,7.33
2022-11-07T05:15:06.210Z,7.41
2022-11-07T05:17:32.793Z,7.31
2022-11-07T05:19:59.355Z,7.40
2022-11-07T05:22:44.405Z,7.57
2022-11-07T05:25:10.979Z,7.39
2022-11-07T05:27:37.559Z,7.48
2022-11-07T05:30:05.714Z,7.40
2022-11-07T05:32:38.101Z,7.38
2022-11-07T05:35:05.834Z,7.43
2022-11-07T05:37:32.554Z,7.40
2022-11-07T05:39:59.146Z,7.39
2022-11-07T05:42:25.799Z,7.36
2022-11-07T05:44:52.389Z,7.43
2022-11-07T05:47:18.956Z,7.41
2022-11-07T05:49:45.662Z,7.41
2022-11-07T05:52:12.240Z,7.51
2022-11-07T05:54:38.812Z,7.45
2022-11-07T05:57:05.423Z,7.36
2022-11-07T05:59:31.990Z,7.43
2022-11-07T06:01:58.632Z,7.40
2022-11-07T06:04:25.307Z,7.48
2022-11-07T06:06:51.871Z,7.50
2022-11-07T06:09:18.434Z,7.50
2022-11-07T06:11:45.344Z,7.55
2022-11-07T06:14:11.921Z,7.44
2022-11-07T06:16:38.488Z,7.52
2022-11-07T06:19:05.138Z,7.48
2022-11-07T06:21:31.748Z,7.46
2022-11-07T06:23:59.182Z,7.42
2022-11-07T06:26:26.709Z,7.44
2022-11-07T06:28:53.683Z,7.45
2022-11-07T06:31:21.888Z,7.47
2022-11-07T06:33:52.066Z,7.53
2022-11-07T06:36:18.722Z,7.52
2022-11-07T06:38:45.324Z,7.54
2022-11-07T06:41:14.377Z,7.52
2022-11-07T06:43:41.004Z,7.58
2022-11-07T06:46:10.946Z,7.65
2022-11-07T06:48:38.111Z,7.70
2022-11-07T06:51:06.110Z,7.71
2022-11-07T06:53:33.071Z,7.74
2022-11-07T06:56:00.912Z,7.72
2022-11-07T06:58:27.754Z,7.82
2022-11-07T07:00:58.536Z,7.73
2022-11-07T07:03:25.258Z,7.77
2022-11-07T07:05:51.854Z,7.90
2022-11-07T07:08:18.563Z,7.99
2022-11-07T07:10:45.963Z,7.94
2022-11-07T07:13:14.684Z,7.94
2022-11-07T07:15:50.889Z,8.06
2022-11-07T07:18:19.094Z,8.13
2022-11-07T07:20:46.559Z,8.20
2022-11-07T07:23:13.191Z,8.15
2022-11-07T07:25:39.798Z,8.26
2022-11-07T07:28:06.395Z,8.29
2022-11-07T07:30:36.075Z,8.25
2022-11-07T07:33:02.730Z,8.22
2022-11-07T07:35:29.273Z,8.39
2022-11-07T07:37:55.900Z,8.46
2022-11-07T07:40:22.747Z,8.60
2022-11-07T07:42:49.414Z,8.50
2022-11-07T07:45:16.345Z,8.49
2022-11-07T07:47:43.067Z,8.53
2022-11-07T07:50:11.830Z,8.59
2022-11-07T07:52:38.431Z,8.61
2022-11-07T07:55:08.005Z,8.73
2022-11-07T07:57:41.652Z,8.82
2022-11-07T08:00:09.408Z,9.03
2022-11-07T08:02:36.003Z,9.13
2022-11-07T08:05:02.676Z,9.32
2022-11-07T08:07:29.347Z,9.49
2022-11-07T08:09:57.314Z,9.74
2022-11-07T08:12:25.843Z,9.57
2022-11-07T08:14:52.511Z,9.93
2022-11-07T08:17:19.093Z,10.07
2022-11-07T08:19:45.741Z,10.27
2022-11-07T08:22:12.331Z,10.11
2022-11-07T08:24:38.912Z,10.14
2022-11-07T08:27:05.479Z,10.44
2022-11-07T08:29:32.151Z,10.70
2022-11-07T08:31:58.765Z,10.61
2022-11-07T08:34:25.519Z,11.01
2022-11-07T08:36:52.122Z,11.19
2022-11-07T08:39:18.745Z,10.81
2022-11-07T08:41:45.315Z,11.09
2022-11-07T08:44:12.062Z,11.06
2022-11-07T08:46:38.671Z,10.90
2022-11-07T08:49:05.273Z,10.72
2022-11-07T08:51:31.900Z,10.83
2022-11-07T08:53:59.142Z,10.68
2022-11-07T08:56:27.971Z,10.54
2022-11-07T08:58:59.865Z,10.74
2022-11-07T09:01:30.014Z,11.13
2022-11-07T09:03:58.665Z,11.41
2022-11-07T09:06:47.435Z,11.40
2022-11-07T09:09:22.700Z,11.77
2022-11-07T09:12:00.637Z,11.79
2022-11-07T09:14:36.174Z,11.92
2022-11-07T09:17:05.875Z,12.27
2022-11-07T09:19:35.849Z,12.24
2022-11-07T09:22:03.252Z,12.42
2022-11-07T09:24:35.159Z,12.37
2022-11-07T09:27:05.162Z,12.60
2022-11-07T09:29:43.234Z,13.04
2022-11-07T09:32:43.417Z,13.21
2022-11-07T09:35:09.747Z,13.04
2022-11-07T09:37:41.413Z,13.25
2022-11-07T09:40:28.329Z,12.67
2022-11-07T09:43:22.353Z,12.81
2022-11-07T09:46:21.200Z,12.96
2022-11-07T09:48:59.279Z,13.08
2022-11-07T09:51:33.776Z,13.22
2022-11-07T09:54:06.097Z,13.60
2022-11-07T09:56:34.004Z,13.65
2022-11-07T09:59:14.090Z,13.63
2022-11-07T10:01:41.676Z,13.29
2022-11-07T10:04:25.884Z,13.71
2022-11-07T10:07:00.057Z,13.70
2022-11-07T10:09:42.889Z,13.73
2022-11-07T10:12:41.746Z,14.17
2022-11-07T10:15:52.121Z,13.96
2022-11-07T10:18:34.665Z,13.95
2022-11-07T10:21:37.008Z,13.93
2022-11-07T10:24:27.011Z,13.89
2022-11-07T10:26:54.113Z,13.97
2022-11-07T10:29:23.617Z,13.83
2022-11-07T10:32:18.917Z,14.17
2022-11-07T10:35:12.819Z,14.52
2022-11-07T10:37:39.553Z,14.58
2022-11-07T10:40:18.410Z,14.68
2022-11-07T10:42:47.523Z,14.44
2022-11-07T10:45:16.071Z,14.04
2022-11-07T10:47:43.235Z,13.69
2022-11-07T10:50:21.495Z,13.89
2022-11-07T10:52:58.537Z,14.13
2022-11-07T10:55:26.601Z,13.92
2022-11-07T10:57:57.482Z,14.14
2022-11-07T11:00:30.448Z,13.99
2022-11-07T11:02:58.000Z,14.30
2022-11-07T11:05:32.715Z,14.16
2022-11-07T11:08:15.541Z,13.95
2022-11-07T11:10:43.195Z,13.95
2022-11-07T11:13:29.531Z,14.20
2022-11-07T11:16:05.194Z,14.40
2022-11-07T11:18:32.877Z,14.65
2022-11-07T11:21:05.893Z,14.30
2022-11-07T11:23:36.925Z,14.51
2022-11-07T11:26:08.337Z,14.43
2022-11-07T11:28:44.114Z,14.64
2022-11-07T11:31:25.228Z,14.53
2022-11-07T11:33:58.842Z,14.78
2022-11-07T11:36:30.623Z,14.70
2022-11-07T11:39:00.343Z,14.65
2022-11-07T11:41:53.356Z,15.21
2022-11-07T11:44:27.860Z,15.20
2022-11-07T11:47:09.551Z,15.48
2022-11-07T11:49:52.336Z,15.81
2022-11-07T11:52:24.156Z,15.69
2022-11-07T11:54:52.760Z,15.41
2022-11-07T11:57:37.389Z,15.18
2022-11-07T12:00:13.052Z,15.56
2022-11-07T12:02:48.483Z,15.24
2022-11-07T12:05:15.011Z,15.19
2022-11-07T12:07:50.896Z,14.52
2022-11-07T12:10:23.587Z,14.53
2022-11-07T12:12:52.923Z,15.02
2022-11-07T12:15:38.013Z,14.98
2022-11-07T12:18:42.821Z,14.79
2022-11-07T12:21:29.598Z,14.32
2022-11-07T12:23:56.145Z,14.81
2022-11-07T12:26:31.340Z,14.80
2022-11-07T12:29:29.972Z,14.48
2022-11-07T12:32:22.864Z,15.05
2022-11-07T12:35:21.371Z,14.60
2022-11-07T12:37:55.912Z,14.57
2022-11-07T12:40:43.776Z,14.13
2022-11-07T12:43:28.914Z,13.75
2022-11-07T12:46:04.598Z,13.98
2022-11-07T12:48:51.116Z,13.86
2022-11-07T12:51:48.731Z,13.88
2022-11-07T12:54:30.600Z,13.62
2022-11-07T12:56:58.588Z,13.63
2022-11-07T12:59:29.819Z,13.79
2022-11-07T13:02:07.311Z,13.73
2022-11-07T13:04:46.789Z,13.62
2022-11-07T13:07:32.467Z,13.38
2022-11-07T13:10:11.169Z,13.38
2022-11-07T13:12:50.078Z,13.34
2022-11-07T13:15:17.244Z,13.32
2022-11-07T13:17:46.245Z,13.44
2022-11-07T13:20:39.147Z,13.23
2022-11-07T13:23:16.380Z,13.31
2022-11-07T13:25:43.623Z,13.10
2022-11-07T13:28:35.671Z,13.07
2022-11-07T13:31:07.600Z,13.09
2022-11-07T13:33:35.945Z,12.81
2022-11-07T13:36:25.987Z,12.94
2022-11-07T13:38:57.864Z,13.03
2022-11-07T13:41:25.416Z,13.06
2022-11-07T13:44:02.583Z,12.89
2022-11-07T13:46:43.067Z,12.80
2022-11-07T13:49:21.415Z,12.79
2022-11-07T13:51:50.926Z,12.78
2022-11-07T13:54:37.758Z,12.73
2022-11-07T13:57:13.175Z,12.68
2022-11-07T13:59:39.749Z,12.73
2022-11-07T14:02:06.927Z,12.67
2022-11-07T14:04:40.596Z,12.73
2022-11-07T14:07:25.823Z,12.77
2022-11-07T14:09:59.072Z,12.76
2022-11-07T14:12:26.642Z,12.91
2022-11-07T14:14:56.439Z,12.93
2022-11-07T14:17:31.095Z,12.72
2022-11-07T14:20:11.286Z,12.76
2022-11-07T14:22:38.202Z,12.71
2022-11-07T14:25:21.938Z,12.75
2022-11-07T14:27:48.659Z,12.82
2022-11-07T14:30:17.348Z,12.67
2022-11-07T14:32:53.754Z,12.67
2022-11-07T14:35:27.738Z,12.58
2022-11-07T14:37:55.607Z,12.59
2022-11-07T14:40:22.561Z,12.57
2022-11-07T14:42:49.385Z,12.54
2022-11-07T14:45:39.126Z,12.46
2022-11-07T14:48:06.574Z,12.55
2022-11-07T14:50:33.626Z,12.58
2022-11-07T14:53:10.214Z,12.55
2022-11-07T14:55:47.227Z,12.53
2022-11-07T14:58:16.658Z,12.54
2022-11-07T15:00:52.418Z,12.56
2022-11-07T15:03:21.959Z,12.40
2022-11-07T15:05:49.033Z,12.38
2022-11-07T15:08:33.597Z,12.26
2022-11-07T15:11:22.093Z,12.32
2022-11-07T15:13:49.030Z,12.23
2022-11-07T15:16:16.885Z,12.17
2022-11-07T15:18:46.153Z,12.12
2022-11-07T15:21:28.423Z,12.11
2022-11-07T15:23:57.901Z,12.10
2022-11-07T15:26:30.354Z,12.24
2022-11-07T15:29:12.288Z,12.27
2022-11-07T15:31:40.246Z,12.25
2022-11-07T15:34:12.511Z,12.22
2022-11-07T15:36:41.250Z,12.22
2022-11-07T15:39:11.539Z,12.23
2022-11-07T15:41:40.680Z,12.09
2022-11-07T15:44:12.509Z,12.03
2022-11-07T15:46:39.435Z,12.09
2022-11-07T15:49:07.496Z,12.03
2022-11-07T15:51:34.237Z,11.96
2022-11-07T15:54:01.070Z,11.94
2022-11-07T15:56:29.237Z,11.92
2022-11-07T15:58:56.103Z,11.84
2022-11-07T16:01:23.392Z,11.83
2022-11-07T16:03:50.197Z,11.80
2022-11-07T16:06:29.023Z,11.85
2022-11-07T16:08:58.166Z,11.78
2022-11-07T16:11:24.994Z,11.70
2022-11-07T16:13:59.254Z,11.70
2022-11-07T16:16:58.212Z,11.67
2022-11-07T16:19:35.530Z,11.53
2022-11-07T16:22:12.605Z,11.41
2022-11-07T16:24:47.773Z,11.45
2022-11-07T16:27:21.086Z,11.30
2022-11-07T16:29:57.451Z,11.18
2022-11-07T16:32:28.651Z,11.28
2022-11-07T16:34:59.174Z,11.19
2022-11-07T16:37:25.897Z,11.17
2022-11-07T16:40:02.179Z,11.09
2022-11-07T16:42:35.999Z,11.04
2022-11-07T16:45:03.501Z,11.04
2022-11-07T16:47:33.129Z,11.05
2022-11-07T16:50:08.500Z,10.97
2022-11-07T16:52:35.684Z,10.91
2022-11-07T16:55:05.230Z,10.89
2022-11-07T16:57:45.190Z,10.91
2022-11-07T17:00:29.333Z,10.81
2022-11-07T17:02:56.215Z,10.90
2022-11-07T17:05:26.508Z,10.99
2022-11-07T17:07:56.514Z,11.01
2022-11-07T17:10:27.734Z,11.06
2022-11-07T17:12:57.517Z,11.06
2022-11-07T17:15:33.942Z,11.09
2022-11-07T17:18:08.438Z,11.06
2022-11-07T17:20:50.884Z,10.97
2022-11-07T17:23:30.408Z,10.93
2022-11-07T17:26:04.888Z,10.89
2022-11-07T17:28:39.136Z,10.84
2022-11-07T17:31:27.885Z,10.87
2022-11-07T17:33:55.578Z,10.81
2022-11-07T17:36:32.064Z,10.80
2022-11-07T17:39:13.384Z,10.76
2022-11-07T17:42:18.283Z,10.77
2022-11-07T17:44:55.912Z,10.71
2022-11-07T17:47:39.538Z,10.69
2022-11-07T17:50:10.268Z,10.70
2022-11-07T17:52:38.901Z,10.73
2022-11-07T17:55:06.744Z,10.72
2022-11-07T17:57:39.857Z,10.83
2022-11-07T18:00:31.189Z,10.83
2022-11-07T18:03:14.024Z,10.90
2022-11-07T18:05:43.082Z,10.99
2022-11-07T18:08:45.975Z,10.99
2022-11-07T18:11:08.300Z,10.94
2022-11-07T18:13:49.550Z,10.90
2022-11-07T18:16:25.200Z,10.83
2022-11-07T18:18:55.637Z,10.83
2022-11-07T18:21:25.257Z,10.78
2022-11-07T18:23:52.580Z,10.76
2022-11-07T18:26:33.224Z,10.74
2022-11-07T18:29:05.984Z,10.77
2022-11-07T18:31:43.625Z,10.78
2022-11-07T18:34:15.866Z,10.75
2022-11-07T18:36:43.643Z,10.72
2022-11-07T18:39:31.922Z,10.81
2022-11-07T18:42:05.129Z,10.72
2022-11-07T18:44:41.500Z,10.66
2022-11-07T18:47:12.810Z,10.59
2022-11-07T18:49:56.612Z,10.64
2022-11-07T18:52:27.134Z,10.70
2022-11-07T18:55:12.327Z,10.63
2022-11-07T18:57:39.812Z,10.64
2022-11-07T19:00:17.129Z,10.56
2022-11-07T19:02:54.140Z,10.59
2022-11-07T19:05:31.970Z,10.68
2022-11-07T19:08:05.203Z,10.66
2022-11-07T19:10:35.415Z,10.66
2022-11-07T19:13:28.109Z,10.67
2022-11-07T19:15:56.255Z,10.76
2022-11-07T19:18:22.936Z,10.71
2022-11-07T19:20:54.547Z,10.78
2022-11-07T19:23:22.532Z,10.76
2022-11-07T19:25:54.767Z,10.77
2022-11-07T19:28:28.623Z,10.79
2022-11-07T19:30:58.040Z,10.77
2022-11-07T19:33:24.674Z,10.73
2022-11-07T19:35:59.928Z,10.67
2022-11-07T19:38:27.274Z,10.72
2022-11-07T19:40:54.301Z,10.71
2022-11-07T19:43:21.199Z,10.64
2022-11-07T19:45:50.984Z,10.61
2022-11-07T19:48:19.124Z,10.58
2022-11-07T19:50:46.220Z,10.57
2022-11-07T19:53:13.249Z,10.66
2022-11-07T19:55:40.248Z,10.59
2022-11-07T19:58:06.947Z,10.64
2022-11-07T20:00:41.170Z,10.69
2022-11-07T20:03:08.602Z,10.69
2022-11-07T20:06:01.487Z,10.69
2022-11-07T20:08:32.209Z,10.68
2022-11-07T20:11:07.516Z,10.66
2022-11-07T20:13:37.593Z,10.67
2022-11-07T20:16:10.532Z,10.63
2022-11-07T20:18:45.017Z,10.77
2022-11-07T20:21:38.541Z,10.72
2022-11-07T20:24:16.968Z,10.82
2022-11-07T20:26:50.253Z,10.73
2022-11-07T20:29:18.957Z,10.78
2022-11-07T20:32:16.362Z,10.75
2022-11-07T20:34:47.745Z,10.80
2022-11-07T20:37:25.500Z,10.78
2022-11-07T20:40:13.122Z,10.75
2022-11-07T20:42:42.189Z,10.73
2022-11-07T20:45:44.331Z,10.73
2022-11-07T20:48:19.433Z,10.78
2022-11-07T20:50:47.396Z,10.73
2022-11-07T20:53:21.341Z,10.77
2022-11-07T20:55:51.968Z,10.69
2022-11-07T20:58:18.651Z,10.74
2022-11-07T21:00:50.435Z,10.65
2022-11-07T21:03:17.490Z,10.57
2022-11-07T21:05:44.637Z,10.57
2022-11-07T21:08:12.173Z,10.64
2022-11-07T21:10:38.943Z,10.67
2022-11-07T21:13:05.664Z,10.50
2022-11-07T21:15:32.436Z,10.53
2022-11-07T21:17:59.248Z,10.51
2022-11-07T21:20:26.092Z,10.40
2022-11-07T21:22:52.794Z,10.45
2022-11-07T21:25:19.585Z,10.47
2022-11-07T21:27:46.245Z,10.42
2022-11-07T21:30:13.499Z,10.49
2022-11-07T21:32:40.310Z,10.43
2022-11-07T21:35:07.344Z,10.40
2022-11-07T21:37:34.081Z,10.42
2022-11-07T21:40:00.848Z,10.43
2022-11-07T21:42:27.675Z,10.39
2022-11-07T21:44:54.817Z,10.40
2022-11-07T21:47:21.525Z,10.29
2022-11-07T21:49:51.589Z,10.35
2022-11-07T21:52:18.539Z,10.28
2022-11-07T21:54:45.429Z,10.19
2022-11-07T21:57:12.135Z,10.16
2022-11-07T21:59:39.170Z,10.11
2022-11-07T22:02:06.115Z,10.02
2022-11-07T22:04:32.881Z,10.05
2022-11-07T22:07:06.266Z,10.01
2022-11-07T22:09:38.017Z,9.95
2022-11-07T22:12:09.521Z,9.89
2022-11-07T22:14:48.104Z,9.88
2022-11-07T22:17:22.846Z,9.90
2022-11-07T22:19:51.190Z,9.89
2022-11-07T22:22:18.079Z,9.84
2022-11-07T22:24:44.747Z,9.80
2022-11-07T22:27:11.482Z,9.78
2022-11-07T22:29:38.168Z,9.74
2022-11-07T22:32:05.222Z,9.69
2022-11-07T22:34:32.110Z,9.69
2022-11-07T22:36:58.792Z,9.69
2022-11-07T22:39:25.652Z,9.70
2022-11-07T22:41:52.388Z,9.75
2022-11-07T22:44:19.110Z,9.68
2022-11-07T22:46:45.977Z,9.68
2022-11-07T22:49:13.246Z,9.68
2022-11-07T22:51:39.958Z,9.67
2022-11-07T22:54:09.994Z,9.67
2022-11-07T22:56:37.042Z,9.73
2022-11-07T22:59:05.061Z,9.77
2022-11-07T23:01:37.803Z,9.69
2022-11-07T23:04:13.559Z,9.69
2022-11-07T23:06:41.259Z,9.77
2022-11-07T23:09:11.078Z,9.75
2022-11-07T23:14:21.215Z,9.80
2022-11-07T23:16:53.091Z,9.79
2022-11-07T23:19:22.245Z,9.85
2022-11-07T23:21:55.498Z,9.81
2022-11-07T23:24:22.957Z,9.86
2022-11-07T23:26:52.913Z,9.84
2022-11-07T23:29:23.180Z,9.89
2022-11-07T23:31:59.821Z,9.86
2022-11-07T23:34:36.390Z,9.81
2022-11-07T23:37:22.153Z,9.82
2022-11-07T23:39:48.934Z,9.82
2022-11-07T23:42:21.096Z,9.81
2022-11-07T23:45:06.461Z,9.85
2022-11-07T23:47:51.405Z,9.96
2022-11-07T23:50:36.736Z,9.89
2022-11-07T23:53:23.463Z,9.97
2022-11-07T23:55:50.316Z,9.85
2022-11-07T23:58:35.487Z,9.92
